ePrivacy and GPDR Cookie Consent by Cookie Consent
EmailTwitter


Observations de surface / Québec / CYUL (71627)

Régions: Québec | Canada | États-Unis | Europe | France | UK | Ailleurs
Station
Affichage
Infos & localisation pour CYUL (71627) | Aide pour décoder les METARs

Observations prises le 2023-02-07 à 11H00 UTC à MONTREAL INTL A, QB (CYUL)

Etat du ciel: dégagé.

Température: -14.0 Celsius

Point de rosée: -16.0 Celsius

Humidité relative: 85%

Facteur vent -23.

Vents: Nord-nord-est à 19 km/h ou 10 noeuds.

Pression au niveau moyen de la mer: 102.76 kilopascals.

Calage altimétrique: 102.71 kilopascals ou 30.33 pouces de mercure.

Visibilité horizontale: 15.00 milles terrestres ou 24.00 kilomètres.

Observation METAR:

CYUL 071100Z 02010KT 15SM SKC M14/M16 A3033 RMK SLP276=